Marysville, KS

3:33 PM CST on February 28, 2015 (GMT -0600)
N0NB | Change Station
CLOSE
Current Station
Personal Weather Station
Location: Bremen, KS
Elevation: 1312 ft
Nearby Weather Stations
Active Advisory: Winter Weather Advisory Active Notice: Local Storm Report

Elev 1312 ft 39.91 °N, 96.77 °W | Updated 8 seconds ago

Snow
Snow
21.6 °F
Feels Like 12 °F
N
8.4
Wind Variable Wind from South
Gusts 9.9 mph

Today
High -- | Low -- °F
--% Chance of Precip.
Yesterday
High -- | Low -- °F
Precip. -- in
7:01 AM 6:17 PM
Waxing Gibbous, 80% visible
Pressure 30.35 in
Visibility 7.0 miles
Clouds Scattered Clouds 1900 ft
Mostly Cloudy 2400 ft
Overcast 11000 ft
Windchill 12 °F
Dew Point 19 °F
Humidity 90%
Rainfall 0.00 in
Snow Depth Not available.
UV 1 out of 12
Pollen .50 out of 12
Air Quality Not available.
Flu Activity Not available.
METAR KBIE 282115Z AUTO 20009KT 7SM -SN SCT019 BKN024 OVC110 M05/M09 A3035 RMK AO2 T10511090

More Conditions Fewer Conditions

Pressure 30.35 in
Visibility 7.0 miles
Clouds Scattered Clouds 1900 ft
Mostly Cloudy 2400 ft
Overcast 11000 ft
Windchill 12 °F
Dew Point 19 °F
Humidity 90%
Rainfall 0.00 in
Snow Depth Not available.
UV 1 out of 12
Pollen .50 out of 12
Air Quality Not available.
Flu Activity Not available.
METAR KBIE 282115Z AUTO 20009KT 7SM -SN SCT019 BKN024 OVC110 M05/M09 A3035 RMK AO2 T10511090

More Conditions Fewer Conditions

10-Day Weather Forecast

Almanac

Astronomy

Feb. 28, 2015 Rise Set
Actual Time
Civil Twilight
Nautical Twilight
Astronomical Twilight
Moon
Length of Visible Light
Length of Day
Tomorrow will be .
, % of the Moon is Illuminated

Today's Extremes

State Highs State Lows

Community

WunderPhotos

Upload Photos

1,801,158 photos uploaded!

WunderBlogs® & News

Nearby

Air Quality

  Air Quality AQ Index Pollutant
Not available.

Snow Depth

Station Depth Elevation

Earthquake Activity

City Distance Mag. Time & Date
Minimum magnitude displayed is 2.5.

Coastal Water Temperatures

Place Temperature

Nearby Weather Stations

Winter Weather Advisory
Statement as of 3:32 PM CST on February 28, 2015

... Winter Weather Advisory remains in effect until noon CST
Sunday...

A Winter Weather Advisory remains in effect until noon CST
Sunday.

* Timing... the light snow this afternoon will tapper off to
occasional light showers this evening. Another area of light to
moderate snow will develop early Sunday morning and end by noon
on Sunday.

* Total... an additional 1 to 3 inches of snowfall is possible late
this afternoon through Sunday morning.

* Winds... winds will be south at 5 to 15 mph.

* Impacts... snow will continue to accumulate on area roadways
making roads snow-packed and slippery. Motorists should use
extreme caution if travel is necessary.

Precautionary/preparedness actions...

Snow is forecast to continue to accumulate in the affected areas
causing hazardous driving conditions. Those with travel plans are
advised to use extreme caution if travel is necessary.